Time;durP1;ratioP1;P1;durP2;ratioP2;P2;SDS_P1;SDS_P2;PMS_P1;PMS_P2;Temp;Humidity;BMP_temperature;BMP_pressure;BME280_temperature;BME280_humidity;BME280_pressure;Samples;Min_cycle;Max_cycle;Signal;HPM_P1;HPM_P2
2023/03/19 00:00:07;;;;;;;2.43;2.00;;;11.30;99.90;;;;;;5043119;28;20784;-94
2023/03/19 00:02:34;;;;;;;1.70;1.60;;;11.30;99.90;;;;;;5061950;28;20528;-95
2023/03/19 00:05:00;;;;;;;1.30;1.20;;;11.30;99.90;;;;;;5061269;28;20186;-92
2023/03/19 00:07:26;;;;;;;1.83;1.73;;;11.30;99.90;;;;;;5066976;28;20210;-94
2023/03/19 00:09:52;;;;;;;3.03;1.87;;;11.30;99.90;;;;;;5075431;28;20185;-94
2023/03/19 00:12:18;;;;;;;5.23;1.40;;;11.30;99.90;;;;;;5060618;28;20192;-95
2023/03/19 00:14:44;;;;;;;2.13;1.63;;;11.30;99.90;;;;;;5062252;28;20704;-92
2023/03/19 00:17:10;;;;;;;1.97;1.50;;;11.30;99.90;;;;;;5062656;28;20222;-93
2023/03/19 00:19:36;;;;;;;1.20;1.10;;;11.30;99.90;;;;;;5059532;28;20608;-94
2023/03/19 00:22:02;;;;;;;2.33;2.07;;;11.30;99.90;;;;;;5061676;28;20182;-95
2023/03/19 00:24:28;;;;;;;2.23;2.00;;;11.30;99.90;;;;;;5060871;28;20204;-94
2023/03/19 00:26:54;;;;;;;1.97;1.43;;;11.30;99.90;;;;;;5058766;28;20217;-95
2023/03/19 00:29:21;;;;;;;1.77;1.50;;;11.30;99.90;;;;;;5058834;28;20189;-95
2023/03/19 00:31:48;;;;;;;2.50;2.30;;;11.30;99.90;;;;;;5060986;28;20182;-93
2023/03/19 00:34:17;;;;;;;2.77;1.60;;;11.30;99.90;;;;;;5060473;28;20181;-95
2023/03/19 00:36:44;;;;;;;2.23;1.70;;;11.30;99.90;;;;;;5061250;28;20316;-95
2023/03/19 00:39:10;;;;;;;1.10;1.00;;;11.30;99.90;;;;;;5060785;28;20177;-95
2023/03/19 00:41:36;;;;;;;1.73;1.13;;;11.20;99.90;;;;;;5058132;28;20320;-95
2023/03/19 00:44:03;;;;;;;2.73;1.60;;;11.20;99.90;;;;;;5066821;28;20182;-93
2023/03/19 00:46:29;;;;;;;1.60;1.50;;;11.20;99.90;;;;;;5082226;28;20184;-91
2023/03/19 00:48:55;;;;;;;1.83;1.40;;;11.20;99.90;;;;;;5060759;28;20276;-94
2023/03/19 00:51:23;;;;;;;1.83;1.73;;;11.20;99.90;;;;;;5051272;28;20193;-95
2023/03/19 00:53:49;;;;;;;2.27;1.77;;;11.20;99.90;;;;;;5060870;28;20765;-94
2023/03/19 00:56:17;;;;;;;1.07;1.00;;;11.20;99.90;;;;;;5059155;28;20182;-92
2023/03/19 00:58:43;;;;;;;2.60;1.60;;;11.10;99.90;;;;;;5056725;28;20643;-91
2023/03/19 01:01:11;;;;;;;1.70;1.60;;;11.10;99.90;;;;;;5057162;28;20573;-94
2023/03/19 01:03:38;;;;;;;2.63;2.40;;;11.10;99.90;;;;;;5058487;28;20203;-95
2023/03/19 01:06:04;;;;;;;2.30;1.50;;;11.10;99.90;;;;;;5065564;28;20189;-94
2023/03/19 01:08:30;;;;;;;4.73;1.57;;;11.10;99.90;;;;;;5058799;28;20232;-93
2023/03/19 01:11:03;;;;;;;1.90;1.70;;;11.10;99.90;;;;;;5055030;28;20657;-93
2023/03/19 01:13:31;;;;;;;2.10;1.60;;;11.10;99.90;;;;;;5057350;28;20631;-92
2023/03/19 01:15:57;;;;;;;2.00;1.40;;;11.10;99.90;;;;;;5055476;28;20584;-92
2023/03/19 01:18:23;;;;;;;2.00;1.27;;;11.10;99.90;;;;;;5059461;28;20204;-92
2023/03/19 01:20:49;;;;;;;4.00;1.60;;;11.10;99.90;;;;;;5046937;28;20193;-92
2023/03/19 01:23:15;;;;;;;2.33;1.57;;;11.20;99.90;;;;;;5049099;28;20196;-93
2023/03/19 01:25:40;;;;;;;2.33;2.13;;;11.20;99.90;;;;;;5057817;28;20214;-93
2023/03/19 01:28:06;;;;;;;3.03;2.23;;;11.20;99.90;;;;;;5040534;28;20198;-92
2023/03/19 01:30:32;;;;;;;2.30;1.70;;;11.20;99.90;;;;;;5054781;28;20194;-91
2023/03/19 01:32:58;;;;;;;3.67;1.70;;;11.20;99.90;;;;;;5030819;28;20208;-92
2023/03/19 01:35:23;;;;;;;1.97;1.87;;;11.20;99.90;;;;;;5043615;28;20193;-91
2023/03/19 01:37:49;;;;;;;2.47;1.10;;;11.10;99.90;;;;;;5047954;28;20284;-91
2023/03/19 01:40:15;;;;;;;2.67;2.47;;;11.10;99.90;;;;;;5031413;28;20320;-90
2023/03/19 01:43:21;;;;;;;0.90;0.90;;;11.10;99.90;;;;;;5054528;28;20194;-92
2023/03/19 01:45:51;;;;;;;1.87;1.57;;;11.10;99.90;;;;;;5054999;28;20254;-91
2023/03/19 01:48:44;;;;;;;4.23;1.93;;;11.10;99.90;;;;;;5059524;28;20217;-91
2023/03/19 01:51:15;;;;;;;3.03;1.50;;;11.10;99.90;;;;;;5050434;28;20197;-90
2023/03/19 01:53:46;;;;;;;1.60;1.20;;;11.10;99.90;;;;;;5056728;28;20185;-91
2023/03/19 01:56:20;;;;;;;3.20;1.97;;;11.00;99.90;;;;;;5056951;28;20576;-91
2023/03/19 01:58:50;;;;;;;2.87;1.70;;;11.00;99.90;;;;;;5055860;28;20185;-90
2023/03/19 02:01:16;;;;;;;1.30;1.20;;;11.10;99.90;;;;;;5050090;28;20181;-88
2023/03/19 02:03:42;;;;;;;1.53;1.33;;;11.00;99.90;;;;;;5047763;28;20234;-91
2023/03/19 02:06:11;;;;;;;1.93;1.10;;;11.00;99.90;;;;;;5030679;28;20182;-91
2023/03/19 02:08:38;;;;;;;1.53;1.43;;;11.10;99.90;;;;;;5039336;28;20222;-92
2023/03/19 02:11:04;;;;;;;1.80;1.70;;;11.10;99.90;;;;;;5038660;28;20189;-90
2023/03/19 02:13:30;;;;;;;1.97;1.23;;;11.10;99.90;;;;;;5045792;28;20186;-93
2023/03/19 02:15:57;;;;;;;1.97;1.50;;;11.10;99.90;;;;;;5045691;28;20443;-90
2023/03/19 02:18:24;;;;;;;3.20;1.60;;;11.10;99.90;;;;;;5055997;28;20662;-92
2023/03/19 02:21:06;;;;;;;3.47;2.00;;;11.20;99.90;;;;;;5056371;28;20636;-91
2023/03/19 02:23:53;;;;;;;2.23;1.93;;;11.20;99.90;;;;;;5062571;28;20185;-90
2023/03/19 02:26:24;;;;;;;2.07;1.63;;;11.10;99.90;;;;;;5055005;28;20578;-91
2023/03/19 02:28:51;;;;;;;3.70;2.30;;;11.10;99.90;;;;;;5063859;28;20185;-90
2023/03/19 02:31:19;;;;;;;2.47;1.87;;;11.10;99.90;;;;;;5054645;28;20189;-91
2023/03/19 02:34:04;;;;;;;3.87;2.20;;;11.10;99.90;;;;;;5053450;28;20784;-91
2023/03/19 02:36:37;;;;;;;4.70;2.20;;;11.10;99.90;;;;;;5055847;28;20177;-92
2023/03/19 02:39:07;;;;;;;2.63;2.00;;;11.10;99.90;;;;;;5055512;28;20193;-91
2023/03/19 02:41:35;;;;;;;3.43;3.13;;;11.00;99.90;;;;;;5055298;28;20241;-92
2023/03/19 02:44:03;;;;;;;3.33;3.03;;;11.00;99.90;;;;;;5055477;28;20222;-92
2023/03/19 02:46:29;;;;;;;6.07;2.80;;;11.00;99.90;;;;;;5054349;28;20185;-91
2023/03/19 02:48:55;;;;;;;4.30;2.87;;;11.00;99.90;;;;;;5054647;28;20205;-92
2023/03/19 02:51:21;;;;;;;4.10;3.27;;;11.00;99.90;;;;;;5044174;28;20202;-92
2023/03/19 02:53:46;;;;;;;3.93;2.43;;;11.00;99.90;;;;;;5045809;28;20260;-90
2023/03/19 02:56:12;;;;;;;5.17;4.37;;;11.00;99.90;;;;;;5054479;28;20253;-94
2023/03/19 02:58:38;;;;;;;3.30;2.97;;;11.00;99.90;;;;;;5036978;28;20188;-92
2023/03/19 03:01:05;;;;;;;3.03;2.77;;;11.00;99.90;;;;;;5044496;28;20764;-93
2023/03/19 03:03:31;;;;;;;4.23;3.83;;;10.90;99.90;;;;;;5051115;28;20196;-93
2023/03/19 03:05:57;;;;;;;4.17;3.03;;;10.80;99.90;;;;;;5045765;28;20182;-93
2023/03/19 03:08:22;;;;;;;3.63;2.63;;;10.80;99.90;;;;;;5054084;28;20217;-92
2023/03/19 03:10:48;;;;;;;3.87;2.93;;;10.80;99.90;;;;;;5054001;28;20193;-92
2023/03/19 03:13:14;;;;;;;3.70;2.83;;;10.70;99.90;;;;;;5022858;28;20197;-91
2023/03/19 03:15:40;;;;;;;3.03;2.73;;;10.70;99.90;;;;;;5054253;28;20212;-93
2023/03/19 03:18:06;;;;;;;6.83;3.90;;;10.70;99.90;;;;;;5053254;28;20248;-92
2023/03/19 03:20:32;;;;;;;5.53;3.63;;;10.70;99.90;;;;;;5053552;28;20185;-93
2023/03/19 03:22:58;;;;;;;5.40;4.03;;;10.70;99.90;;;;;;5054114;28;20254;-94
2023/03/19 03:25:23;;;;;;;3.90;2.50;;;10.70;99.90;;;;;;5041631;28;20205;-93
2023/03/19 03:27:49;;;;;;;8.27;4.33;;;10.70;99.90;;;;;;5053462;28;20570;-92
2023/03/19 03:30:15;;;;;;;4.93;3.53;;;10.70;99.90;;;;;;5036880;28;20201;-94
2023/03/19 03:32:42;;;;;;;7.90;4.07;;;10.60;99.90;;;;;;5054233;28;20216;-93
2023/03/19 03:35:08;;;;;;;5.37;4.20;;;10.50;99.90;;;;;;5061000;28;20228;-91
2023/03/19 03:37:35;;;;;;;6.97;4.80;;;10.50;99.90;;;;;;5038590;28;20189;-91
2023/03/19 03:40:05;;;;;;;5.83;3.87;;;10.50;99.90;;;;;;5046489;28;20233;-90
2023/03/19 03:42:31;;;;;;;8.93;5.23;;;10.50;99.90;;;;;;5037525;28;20193;-90
2023/03/19 03:44:57;;;;;;;7.50;4.97;;;10.50;99.90;;;;;;5050322;28;20202;-90
2023/03/19 03:47:23;;;;;;;7.07;4.90;;;10.50;99.90;;;;;;5044093;28;20561;-90
2023/03/19 03:49:49;;;;;;;6.53;4.57;;;10.50;99.90;;;;;;5035905;28;20743;-93
2023/03/19 03:52:15;;;;;;;6.63;4.90;;;10.40;99.90;;;;;;5054999;28;20193;-91
2023/03/19 03:54:41;;;;;;;8.10;4.97;;;10.40;99.90;;;;;;5029666;28;20198;-93
2023/03/19 03:57:07;;;;;;;6.87;5.07;;;10.30;99.90;;;;;;5053551;28;20246;-90
2023/03/19 03:59:32;;;;;;;4.67;4.23;;;10.20;99.90;;;;;;5022137;28;20305;-91
2023/03/19 04:01:58;;;;;;;8.23;5.70;;;10.20;99.90;;;;;;5054548;28;20244;-90
2023/03/19 04:04:24;;;;;;;6.63;4.07;;;10.10;99.90;;;;;;5061293;28;20190;-92
2023/03/19 04:06:50;;;;;;;5.67;3.63;;;10.00;99.90;;;;;;5044521;28;20277;-92
2023/03/19 04:09:16;;;;;;;9.57;6.03;;;10.00;99.90;;;;;;5053689;28;20189;-93
2023/03/19 04:11:41;;;;;;;5.70;4.30;;;10.00;99.90;;;;;;5054313;28;20447;-91
2023/03/19 04:14:08;;;;;;;4.90;4.43;;;9.90;99.90;;;;;;5036658;28;20228;-92
2023/03/19 04:16:33;;;;;;;5.20;4.70;;;9.90;99.90;;;;;;5053319;28;20182;-93
2023/03/19 04:18:59;;;;;;;5.13;4.60;;;9.80;99.90;;;;;;5052468;28;20185;-90
2023/03/19 04:21:25;;;;;;;5.60;3.63;;;9.80;99.90;;;;;;5055684;28;20638;-93
2023/03/19 04:23:51;;;;;;;9.47;5.77;;;9.80;99.90;;;;;;5053670;28;20198;-92
2023/03/19 04:26:17;;;;;;;6.90;5.27;;;9.80;99.90;;;;;;5053028;28;20197;-94
2023/03/19 04:28:42;;;;;;;7.23;5.37;;;9.80;99.90;;;;;;5055574;28;20228;-93
2023/03/19 04:31:09;;;;;;;8.87;6.17;;;9.70;99.90;;;;;;5051935;28;20201;-92
2023/03/19 04:33:35;;;;;;;6.37;4.83;;;9.70;99.90;;;;;;5052562;28;20536;-93
2023/03/19 04:36:02;;;;;;;6.83;5.03;;;9.60;99.90;;;;;;5054316;28;20197;-92
2023/03/19 04:38:28;;;;;;;8.03;5.23;;;9.50;99.90;;;;;;5044769;28;20201;-92
2023/03/19 04:40:55;;;;;;;8.63;4.43;;;9.50;99.90;;;;;;5054646;28;20230;-92
2023/03/19 04:43:22;;;;;;;9.47;4.80;;;9.40;99.90;;;;;;5055006;28;20749;-92
2023/03/19 04:45:48;;;;;;;7.43;4.47;;;9.40;99.90;;;;;;5053801;28;20658;-90
2023/03/19 04:48:14;;;;;;;10.13;5.07;;;9.40;99.90;;;;;;5058552;28;20218;-92
2023/03/19 04:50:40;;;;;;;9.37;6.67;;;9.30;99.90;;;;;;5040795;28;20194;-90
2023/03/19 04:53:06;;;;;;;7.63;5.97;;;9.20;99.90;;;;;;5056598;28;20635;-90
2023/03/19 04:55:33;;;;;;;7.67;4.67;;;9.20;99.90;;;;;;5056103;28;20639;-89
2023/03/19 04:57:59;;;;;;;9.10;4.83;;;9.20;99.90;;;;;;5053418;28;20194;-90
2023/03/19 05:00:25;;;;;;;6.33;4.70;;;9.20;99.90;;;;;;5041008;28;20193;-92
2023/03/19 05:02:51;;;;;;;5.70;4.50;;;9.10;99.90;;;;;;5056709;28;20194;-91
2023/03/19 05:05:17;;;;;;;5.10;3.77;;;9.10;99.90;;;;;;5055856;28;20201;-93
2023/03/19 05:07:43;;;;;;;7.70;4.90;;;9.00;99.90;;;;;;5056889;28;20652;-91
2023/03/19 05:10:10;;;;;;;5.87;5.37;;;9.00;99.90;;;;;;5048199;28;20308;-90
2023/03/19 05:12:36;;;;;;;7.57;5.10;;;9.00;99.90;;;;;;5056677;28;20305;-90
2023/03/19 05:15:04;;;;;;;5.70;4.63;;;8.90;99.90;;;;;;5054914;28;20198;-91
2023/03/19 05:17:30;;;;;;;10.00;5.13;;;8.90;99.90;;;;;;5058611;28;20200;-91
2023/03/19 05:19:56;;;;;;;7.70;4.67;;;8.90;99.90;;;;;;5049043;28;20588;-90
2023/03/19 05:22:22;;;;;;;6.90;4.47;;;8.80;99.90;;;;;;5047618;28;20194;-92
2023/03/19 05:24:48;;;;;;;7.93;4.90;;;8.80;99.90;;;;;;5049037;28;20189;-92
2023/03/19 05:27:14;;;;;;;4.47;4.07;;;8.80;99.90;;;;;;5025653;28;20267;-93
2023/03/19 05:29:41;;;;;;;7.83;5.90;;;8.80;99.90;;;;;;5053929;28;21354;-90
2023/03/19 05:32:07;;;;;;;8.40;5.00;;;8.80;99.90;;;;;;5039800;28;20201;-90
2023/03/19 05:34:33;;;;;;;11.83;5.70;;;8.80;99.90;;;;;;5041134;28;20196;-91
2023/03/19 05:36:59;;;;;;;5.47;4.37;;;8.70;99.90;;;;;;5042034;28;20186;-91
2023/03/19 05:39:25;;;;;;;6.87;5.03;;;8.70;99.90;;;;;;5057174;28;20200;-91
2023/03/19 05:41:51;;;;;;;8.77;4.63;;;8.70;99.90;;;;;;5058104;28;20282;-92
2023/03/19 05:44:17;;;;;;;6.80;4.83;;;8.70;99.90;;;;;;5058826;28;20959;-91
2023/03/19 05:46:43;;;;;;;8.20;5.20;;;8.70;99.90;;;;;;5053836;28;20225;-91
2023/03/19 05:49:09;;;;;;;9.47;5.23;;;8.70;99.90;;;;;;5039030;28;20194;-92
2023/03/19 05:51:35;;;;;;;5.43;4.43;;;8.70;99.90;;;;;;5055963;28;20193;-92
2023/03/19 05:54:01;;;;;;;4.90;3.03;;;8.70;99.90;;;;;;5056562;28;20552;-92
2023/03/19 05:56:28;;;;;;;8.97;3.63;;;8.80;99.90;;;;;;5053663;28;20659;-92
2023/03/19 05:58:54;;;;;;;6.10;3.97;;;8.80;99.90;;;;;;5055766;28;20190;-90
2023/03/19 06:01:20;;;;;;;5.77;4.13;;;8.90;99.90;;;;;;5045986;28;20202;-92
2023/03/19 06:03:46;;;;;;;4.50;3.63;;;8.90;99.90;;;;;;5056656;28;20225;-93
2023/03/19 06:06:12;;;;;;;8.67;5.40;;;9.10;99.90;;;;;;5047903;28;20213;-91
2023/03/19 06:08:38;;;;;;;10.87;5.70;;;9.70;99.90;;;;;;5056863;28;20274;-92
2023/03/19 06:11:04;;;;;;;10.47;6.67;;;9.90;99.90;;;;;;5058137;28;20239;-91
2023/03/19 06:13:30;;;;;;;12.17;6.53;;;9.90;99.90;;;;;;5047595;28;20756;-91
2023/03/19 06:15:56;;;;;;;7.37;5.77;;;9.90;99.90;;;;;;5057780;28;20197;-93
2023/03/19 06:18:21;;;;;;;8.97;6.20;;;10.20;99.90;;;;;;5039933;28;20186;-92
2023/03/19 06:20:47;;;;;;;7.33;5.23;;;10.20;99.90;;;;;;5075918;28;20246;-93
2023/03/19 06:23:13;;;;;;;9.33;4.47;;;10.10;99.90;;;;;;5046888;28;20194;-94
2023/03/19 06:25:39;;;;;;;10.30;5.80;;;10.10;99.90;;;;;;5056760;28;20218;-92
2023/03/19 06:28:06;;;;;;;8.10;5.60;;;10.60;99.90;;;;;;5059493;28;20225;-93
2023/03/19 06:30:32;;;;;;;19.20;6.60;;;11.00;99.90;;;;;;5044963;28;20350;-93
2023/03/19 06:32:58;;;;;;;10.93;6.10;;;11.10;99.90;;;;;;5055801;28;20193;-93
2023/03/19 06:35:24;;;;;;;10.03;6.43;;;11.70;99.90;;;;;;5045897;28;20181;-93
2023/03/19 06:37:51;;;;;;;11.53;7.00;;;12.10;99.90;;;;;;5057449;28;20198;-91
2023/03/19 06:40:17;;;;;;;9.87;6.90;;;12.30;99.90;;;;;;5057534;28;20247;-92
2023/03/19 06:42:45;;;;;;;10.53;7.77;;;12.90;99.90;;;;;;5055696;28;20197;-93
2023/03/19 06:45:12;;;;;;;11.57;6.33;;;13.70;99.90;;;;;;5054799;28;20198;-90
2023/03/19 06:47:40;;;;;;;12.70;6.03;;;14.60;99.90;;;;;;5028370;28;20247;-93
2023/03/19 06:50:07;;;;;;;15.17;5.80;;;15.00;99.90;;;;;;5056317;28;20198;-93
2023/03/19 06:52:32;;;;;;;13.30;6.70;;;15.40;99.90;;;;;;5055159;28;20610;-92
2023/03/19 06:54:58;;;;;;;13.57;6.77;;;14.80;99.90;;;;;;5047496;28;20327;-92
2023/03/19 06:57:24;;;;;;;10.37;6.03;;;13.80;99.90;;;;;;5064677;28;20201;-93
2023/03/19 06:59:49;;;;;;;10.53;5.10;;;12.90;99.90;;;;;;5057065;28;20210;-91
2023/03/19 07:02:15;;;;;;;5.43;4.57;;;11.50;99.90;;;;;;5052477;28;20192;-91
2023/03/19 07:04:41;;;;;;;9.27;5.27;;;10.90;99.90;;;;;;5045472;28;20239;-93
2023/03/19 07:07:07;;;;;;;7.90;4.37;;;10.70;99.90;;;;;;5046499;28;20259;-92
2023/03/19 07:09:33;;;;;;;8.63;4.53;;;10.60;99.90;;;;;;5046225;28;20229;-91
2023/03/19 07:11:59;;;;;;;10.63;3.83;;;10.50;99.90;;;;;;5056203;28;20185;-91
2023/03/19 07:14:24;;;;;;;8.27;3.90;;;10.40;99.90;;;;;;5029815;28;20781;-91
2023/03/19 07:16:50;;;;;;;4.03;3.20;;;10.30;99.90;;;;;;5038261;28;20234;-92
2023/03/19 07:19:16;;;;;;;7.07;4.07;;;10.10;99.90;;;;;;5054918;28;20235;-91
2023/03/19 07:21:42;;;;;;;7.63;4.93;;;10.10;99.90;;;;;;5055345;28;20185;-91
2023/03/19 07:24:07;;;;;;;11.27;4.87;;;10.20;99.90;;;;;;5057263;28;20189;-92
2023/03/19 07:26:34;;;;;;;10.37;5.73;;;10.10;99.90;;;;;;5055497;28;20195;-92
2023/03/19 07:28:59;;;;;;;7.20;4.77;;;10.10;99.90;;;;;;5054511;28;20205;-89
2023/03/19 07:31:25;;;;;;;10.73;5.07;;;10.10;99.90;;;;;;5039381;28;20548;-92
2023/03/19 07:33:51;;;;;;;10.67;5.93;;;10.00;99.90;;;;;;5044717;28;20678;-92
2023/03/19 07:36:16;;;;;;;9.00;6.60;;;10.10;99.90;;;;;;5044283;28;20193;-93
2023/03/19 07:38:42;;;;;;;10.27;5.53;;;10.20;99.90;;;;;;5055609;28;20276;-91
2023/03/19 07:41:08;;;;;;;7.73;5.10;;;10.20;99.90;;;;;;5038291;28;20241;-90
2023/03/19 07:43:34;;;;;;;10.60;5.77;;;10.10;99.90;;;;;;5036448;28;20201;-93
2023/03/19 07:46:00;;;;;;;13.27;5.83;;;10.00;99.90;;;;;;5053362;28;20186;-93
2023/03/19 07:48:26;;;;;;;12.53;8.60;;;10.00;99.90;;;;;;5052947;28;20287;-93
2023/03/19 07:50:53;;;;;;;20.07;7.67;;;10.10;99.90;;;;;;5051970;28;20203;-92
2023/03/19 07:53:19;;;;;;;13.60;8.30;;;10.20;99.90;;;;;;5051295;28;20186;-92
2023/03/19 07:55:46;;;;;;;17.83;8.07;;;10.30;99.90;;;;;;5022487;28;20185;-95
2023/03/19 07:58:12;;;;;;;14.00;7.47;;;10.30;99.90;;;;;;5052984;28;20279;-93
2023/03/19 08:00:38;;;;;;;17.83;9.73;;;10.20;99.90;;;;;;5056536;28;20470;-91
2023/03/19 08:03:03;;;;;;;13.97;6.80;;;10.30;99.90;;;;;;5042300;28;20248;-92
2023/03/19 08:05:29;;;;;;;11.50;5.57;;;10.30;99.90;;;;;;5050410;28;20670;-93
2023/03/19 08:07:55;;;;;;;19.00;8.80;;;10.30;99.90;;;;;;5056627;28;20256;-91
2023/03/19 08:10:21;;;;;;;20.73;7.83;;;10.30;99.90;;;;;;5048218;28;20212;-92
2023/03/19 08:12:47;;;;;;;13.60;6.60;;;10.30;99.90;;;;;;5045011;28;20588;-92
2023/03/19 08:15:13;;;;;;;17.83;7.20;;;10.40;99.90;;;;;;5034558;28;20200;-92
2023/03/19 08:17:39;;;;;;;20.63;8.37;;;10.40;99.90;;;;;;5045218;28;20190;-93
2023/03/19 08:20:15;;;;;;;20.93;7.53;;;10.50;99.90;;;;;;5055395;28;20193;-91
2023/03/19 08:22:42;;;;;;;15.73;7.00;;;10.40;99.90;;;;;;5064145;28;20677;-93
2023/03/19 08:25:09;;;;;;;17.33;6.83;;;10.50;99.90;;;;;;5049744;28;20185;-94
2023/03/19 08:27:35;;;;;;;9.50;6.30;;;10.70;99.90;;;;;;5059493;28;20639;-93
2023/03/19 08:30:03;;;;;;;11.30;6.53;;;10.80;99.90;;;;;;5050813;28;20259;-95
2023/03/19 08:32:29;;;;;;;21.83;11.33;;;10.70;99.90;;;;;;5041380;28;20189;-92
2023/03/19 08:34:55;;;;;;;12.57;8.40;;;10.50;99.90;;;;;;5031670;28;20655;-93
2023/03/19 08:37:21;;;;;;;35.40;17.33;;;10.50;99.90;;;;;;5058109;28;20198;-93
2023/03/19 08:39:49;;;;;;;19.03;12.00;;;10.60;99.90;;;;;;5056425;28;20224;-91
2023/03/19 08:42:15;;;;;;;17.67;10.13;;;10.60;99.90;;;;;;5064747;28;20290;-90
2023/03/19 08:44:41;;;;;;;28.43;11.40;;;10.50;99.90;;;;;;5065458;28;20662;-92
2023/03/19 08:47:07;;;;;;;21.87;10.57;;;10.70;99.90;;;;;;5051839;28;20253;-92
2023/03/19 08:49:35;;;;;;;15.53;11.20;;;10.80;99.90;;;;;;5044445;28;20202;-90
2023/03/19 08:52:01;;;;;;;15.13;8.67;;;10.90;99.90;;;;;;5042197;28;20249;-91
2023/03/19 08:54:27;;;;;;;9.73;7.10;;;11.00;99.90;;;;;;5045955;28;20595;-89
2023/03/19 08:56:53;;;;;;;13.00;8.00;;;11.10;99.90;;;;;;5055898;28;20542;-90
2023/03/19 08:59:18;;;;;;;16.50;8.20;;;11.00;99.90;;;;;;5056361;28;20193;-90
2023/03/19 09:01:44;;;;;;;20.00;7.03;;;10.90;99.90;;;;;;5045824;28;20640;-93
2023/03/19 09:04:10;;;;;;;14.10;7.10;;;10.90;99.90;;;;;;5040994;28;20284;-90
2023/03/19 09:06:36;;;;;;;17.50;8.03;;;10.80;99.90;;;;;;5053907;28;20189;-91
2023/03/19 09:09:01;;;;;;;23.07;9.30;;;10.80;99.90;;;;;;5024052;28;20231;-92
2023/03/19 09:11:28;;;;;;;16.13;6.03;;;10.80;99.90;;;;;;5048150;28;20189;-91
2023/03/19 09:13:54;;;;;;;27.90;9.00;;;10.80;99.90;;;;;;5057183;28;20304;-91
2023/03/19 09:16:20;;;;;;;11.07;5.70;;;10.80;99.90;;;;;;5038686;28;20225;-86
2023/03/19 09:19:06;;;;;;;15.40;8.70;;;10.60;99.90;;;;;;5035760;28;20236;-90
2023/03/19 09:21:37;;;;;;;17.60;6.00;;;10.60;99.90;;;;;;5051956;28;20498;-92
2023/03/19 09:24:04;;;;;;;23.90;8.87;;;10.60;99.90;;;;;;5060560;28;20177;-91
2023/03/19 09:26:30;;;;;;;15.43;6.93;;;10.50;99.90;;;;;;5054383;28;20273;-92
2023/03/19 09:28:56;;;;;;;22.33;8.33;;;10.50;99.90;;;;;;5054854;28;20351;-90
2023/03/19 09:31:22;;;;;;;10.70;4.27;;;10.50;99.90;;;;;;5038284;28;20196;-89
2023/03/19 09:33:49;;;;;;;11.93;6.20;;;10.60;99.90;;;;;;5048865;28;20709;-88
2023/03/19 09:36:15;;;;;;;15.33;4.50;;;10.40;99.90;;;;;;5054391;28;20488;-88
2023/03/19 09:38:41;;;;;;;5.13;3.93;;;10.20;99.90;;;;;;5051124;28;20199;-87
2023/03/19 09:41:30;;;;;;;8.47;5.17;;;10.40;99.90;;;;;;5050118;28;20230;-89
2023/03/19 09:44:02;;;;;;;3.67;3.23;;;10.60;99.90;;;;;;5054298;28;20198;-88
2023/03/19 09:46:42;;;;;;;8.63;5.63;;;10.70;99.90;;;;;;5053355;28;20228;-88
2023/03/19 09:49:25;;;;;;;7.97;4.13;;;10.60;99.90;;;;;;5048680;28;20661;-89
2023/03/19 09:52:30;;;;;;;8.07;4.10;;;10.60;99.90;;;;;;5051633;28;20249;-90
2023/03/19 09:55:01;;;;;;;6.63;3.33;;;10.70;99.90;;;;;;5016821;28;20205;-91
2023/03/19 09:57:32;;;;;;;6.13;2.90;;;10.80;99.90;;;;;;5053566;28;20194;-90
2023/03/19 09:59:58;;;;;;;8.50;3.73;;;10.70;99.90;;;;;;5038793;28;20715;-90
2023/03/19 10:02:41;;;;;;;5.90;4.10;;;10.80;99.90;;;;;;5042169;28;20335;-88
2023/03/19 10:05:15;;;;;;;6.20;3.47;;;10.70;99.90;;;;;;5062437;28;20185;-90
2023/03/19 10:07:58;;;;;;;12.40;6.27;;;10.90;99.90;;;;;;5052839;28;20269;-91
2023/03/19 10:10:57;;;;;;;5.47;4.93;;;10.90;99.90;;;;;;5050766;28;20238;-88
2023/03/19 10:13:47;;;;;;;4.53;2.83;;;10.90;99.90;;;;;;5028900;28;20201;-87
2023/03/19 10:16:19;;;;;;;7.00;3.03;;;11.00;99.90;;;;;;5052033;28;20186;-88
2023/03/19 10:18:50;;;;;;;5.43;3.37;;;10.70;99.90;;;;;;5049768;28;20186;-92
2023/03/19 10:21:38;;;;;;;4.90;2.83;;;10.70;99.90;;;;;;5052021;28;20745;-91
2023/03/19 10:24:14;;;;;;;3.97;2.10;;;10.70;99.90;;;;;;5056557;28;20178;-92
2023/03/19 10:26:40;;;;;;;4.13;2.40;;;10.80;99.90;;;;;;5056554;28;20220;-93
2023/03/19 10:29:19;;;;;;;6.90;3.07;;;11.00;99.90;;;;;;5051502;28;20173;-91
2023/03/19 10:31:51;;;;;;;7.10;3.20;;;11.00;99.90;;;;;;5052502;28;20628;-90
2023/03/19 10:34:38;;;;;;;4.47;2.23;;;11.00;99.90;;;;;;5053208;28;20185;-90
2023/03/19 10:37:15;;;;;;;4.77;2.63;;;11.00;99.90;;;;;;5060234;28;20649;-90
2023/03/19 10:39:44;;;;;;;5.17;3.50;;;11.00;99.90;;;;;;5051561;28;20232;-89
2023/03/19 10:42:30;;;;;;;6.17;3.20;;;11.10;99.90;;;;;;5053390;28;21426;-89
2023/03/19 10:45:04;;;;;;;3.20;2.90;;;11.20;99.90;;;;;;5053952;28;20178;-90
2023/03/19 10:47:37;;;;;;;5.67;3.37;;;11.00;99.90;;;;;;5053129;28;20205;-89
2023/03/19 10:50:03;;;;;;;5.97;3.67;;;11.10;99.90;;;;;;5049278;28;20581;-89
2023/03/19 10:52:34;;;;;;;8.07;4.73;;;10.90;99.90;;;;;;5022487;28;20639;-89
2023/03/19 10:55:24;;;;;;;4.30;3.33;;;10.80;99.90;;;;;;5054726;28;20193;-89
2023/03/19 10:58:03;;;;;;;5.20;2.33;;;10.70;99.90;;;;;;5062999;28;20185;-89
2023/03/19 11:00:34;;;;;;;4.00;3.37;;;10.70;99.90;;;;;;5054471;28;20725;-90
2023/03/19 11:03:03;;;;;;;8.63;4.27;;;10.80;99.90;;;;;;5051770;28;20185;-88
2023/03/19 11:05:33;;;;;;;11.80;5.67;;;10.90;99.90;;;;;;5052351;28;20189;-90
2023/03/19 11:08:02;;;;;;;4.27;3.30;;;10.90;99.90;;;;;;5052459;28;20308;-88
2023/03/19 11:10:32;;;;;;;10.33;5.20;;;10.90;99.90;;;;;;5068210;28;20216;-88
2023/03/19 11:13:14;;;;;;;8.33;4.80;;;11.00;99.90;;;;;;5050806;28;20514;-89
2023/03/19 11:15:40;;;;;;;11.20;4.00;;;11.00;99.90;;;;;;5056089;28;20193;-88
2023/03/19 11:18:20;;;;;;;4.50;2.80;;;10.90;99.90;;;;;;5040516;28;20233;-89
2023/03/19 11:20:58;;;;;;;9.07;5.93;;;10.80;99.90;;;;;;5075866;28;20212;-89
2023/03/19 11:23:30;;;;;;;8.77;4.07;;;10.90;99.90;;;;;;5043177;28;20235;-90
2023/03/19 11:26:00;;;;;;;5.00;4.40;;;11.00;99.90;;;;;;5056887;28;20654;-88
2023/03/19 11:28:31;;;;;;;7.43;4.80;;;11.10;99.90;;;;;;5052539;28;20205;-88
2023/03/19 11:31:03;;;;;;;3.90;3.00;;;11.10;99.90;;;;;;5054047;28;20193;-89
2023/03/19 11:33:29;;;;;;;4.93;2.60;;;11.30;99.90;;;;;;5052955;28;20189;-88
2023/03/19 11:36:26;;;;;;;6.13;3.07;;;11.30;99.90;;;;;;5056473;28;20192;-90
2023/03/19 11:39:15;;;;;;;7.47;2.93;;;11.40;99.90;;;;;;5051125;28;20224;-89
2023/03/19 11:42:09;;;;;;;6.53;3.83;;;11.40;99.90;;;;;;5052159;28;20233;-89
2023/03/19 11:45:09;;;;;;;4.27;3.87;;;11.50;99.90;;;;;;5051060;28;20204;-88
2023/03/19 11:48:09;;;;;;;6.07;3.00;;;11.60;99.90;;;;;;5050656;28;20210;-88
2023/03/19 11:50:48;;;;;;;6.83;3.23;;;11.60;99.90;;;;;;5056433;28;20182;-90
2023/03/19 11:53:28;;;;;;;4.17;3.77;;;11.80;99.90;;;;;;5051625;28;20189;-88
2023/03/19 11:56:16;;;;;;;3.23;2.40;;;11.70;99.90;;;;;;5055460;28;20189;-91
2023/03/19 11:59:19;;;;;;;5.27;3.17;;;11.60;99.90;;;;;;5055636;28;20205;-90
2023/03/19 12:01:48;;;;;;;4.37;3.07;;;11.90;99.90;;;;;;5055134;28;20193;-88
2023/03/19 12:04:26;;;;;;;4.27;3.00;;;12.00;99.90;;;;;;5052389;28;20204;-90
2023/03/19 12:07:19;;;;;;;15.47;4.47;;;11.90;99.90;;;;;;5057752;28;20192;-88
2023/03/19 12:10:19;;;;;;;3.67;2.70;;;12.00;99.90;;;;;;5053983;28;20189;-88
2023/03/19 12:13:13;;;;;;;6.63;3.90;;;11.80;99.90;;;;;;5053978;28;20285;-87
2023/03/19 12:16:17;;;;;;;5.83;3.37;;;11.70;99.90;;;;;;5059794;28;20226;-85
2023/03/19 12:19:13;;;;;;;6.97;4.00;;;11.70;99.90;;;;;;5054159;28;20975;-86
2023/03/19 12:22:08;;;;;;;2.87;2.57;;;11.80;99.90;;;;;;5055209;28;20221;-90
2023/03/19 12:24:49;;;;;;;7.40;2.77;;;11.90;99.90;;;;;;5070103;28;20313;-89
2023/03/19 12:27:43;;;;;;;10.97;4.43;;;11.80;99.90;;;;;;5049559;28;20304;-87
2023/03/19 12:30:35;;;;;;;9.20;5.23;;;11.60;99.90;;;;;;5054875;28;20188;-88
2023/03/19 12:33:51;;;;;;;8.87;3.90;;;11.50;99.90;;;;;;5054832;28;20181;-88
2023/03/19 12:36:32;;;;;;;9.87;5.37;;;11.50;99.90;;;;;;4980193;28;20216;-87
2023/03/19 12:39:21;;;;;;;10.77;4.97;;;11.50;99.90;;;;;;5043106;28;20264;-87
2023/03/19 12:41:48;;;;;;;18.23;9.67;;;11.60;99.90;;;;;;5054999;28;20245;-88
2023/03/19 12:44:21;;;;;;;7.67;4.67;;;11.70;99.90;;;;;;5052173;28;20241;-87
2023/03/19 12:46:50;;;;;;;18.07;5.07;;;11.80;99.90;;;;;;5054591;28;20699;-86
2023/03/19 12:49:30;;;;;;;9.53;5.60;;;11.90;99.90;;;;;;5055716;28;20226;-87
2023/03/19 12:52:01;;;;;;;10.97;5.60;;;11.90;99.90;;;;;;5078586;28;20217;-86
2023/03/19 12:54:34;;;;;;;9.90;5.70;;;12.10;99.90;;;;;;5055956;28;20220;-87
2023/03/19 12:57:10;;;;;;;2.13;2.03;;;12.20;99.90;;;;;;5059280;28;20182;-86
2023/03/19 13:00:01;;;;;;;7.33;4.37;;;11.90;99.90;;;;;;5055844;28;20189;-88